Time;durP1;ratioP1;P1;durP2;ratioP2;P2;SDS_P1;SDS_P2;PMS_P1;PMS_P2;Temp;Humidity;BMP_temperature;BMP_pressure;BME280_temperature;BME280_humidity;BME280_pressure;Samples;Min_cycle;Max_cycle;Signal;HPM_P1;HPM_P2
2022/08/18 00:02:00;;;;;;;17.00;14.05;;;;;;;;;;5063287;28;20031;-78
2022/08/18 00:04:26;;;;;;;12.30;10.77;;;;;;;;;;5058355;28;20086;-82
2022/08/18 00:06:51;;;;;;;16.77;13.25;;;;;;;;;;5063732;28;20033;-77
2022/08/18 00:09:16;;;;;;;17.85;12.85;;;;;;;;;;5055219;28;20442;-77
2022/08/18 00:11:42;;;;;;;15.13;12.25;;;;;;;;;;5065242;28;20036;-79
2022/08/18 00:14:16;;;;;;;14.43;12.70;;;;;;;;;;5064153;28;20024;-83
2022/08/18 00:16:41;;;;;;;16.35;13.15;;;;;;;;;;5063266;28;20027;-86
2022/08/18 00:19:07;;;;;;;17.67;12.00;;;;;;;;;;5067688;28;20024;-79
2022/08/18 00:21:33;;;;;;;15.60;11.50;;;;;;;;;;5067003;28;20024;-78
2022/08/18 00:23:58;;;;;;;12.98;10.45;;;;;;;;;;5067409;28;20115;-82
2022/08/18 00:26:24;;;;;;;14.93;11.75;;;;;;;;;;5055870;28;20155;-77
2022/08/18 00:28:49;;;;;;;13.05;11.13;;;;;;;;;;5064215;28;20107;-81
2022/08/18 00:31:14;;;;;;;14.07;10.43;;;;;;;;;;5056990;28;20530;-82
2022/08/18 00:33:42;;;;;;;14.05;10.18;;;;;;;;;;5064512;28;20036;-77
2022/08/18 00:36:08;;;;;;;13.82;11.68;;;;;;;;;;5064671;28;20029;-82
2022/08/18 00:38:33;;;;;;;14.45;12.13;;;;;;;;;;5066440;28;20401;-78
2022/08/18 00:41:00;;;;;;;15.20;11.60;;;;;;;;;;5066687;28;20020;-77
2022/08/18 00:43:50;;;;;;;12.93;10.70;;;;;;;;;;5063804;28;20016;-78
2022/08/18 00:46:25;;;;;;;10.77;8.77;;;;;;;;;;5067852;28;20020;-79
2022/08/18 00:48:51;;;;;;;12.57;10.77;;;;;;;;;;5068380;28;20025;-79
2022/08/18 00:51:30;;;;;;;10.88;8.02;;;;;;;;;;5064920;28;20066;-79
2022/08/18 00:54:13;;;;;;;9.77;8.23;;;;;;;;;;5053001;28;20040;-80
2022/08/18 00:56:45;;;;;;;11.13;8.15;;;;;;;;;;5058246;28;20534;-87
2022/08/18 00:59:27;;;;;;;12.02;9.75;;;;;;;;;;5061755;28;20020;-83
2022/08/18 01:01:56;;;;;;;12.60;9.97;;;;;;;;;;5060618;28;20027;-78
2022/08/18 01:04:35;;;;;;;11.88;9.45;;;;;;;;;;5055618;28;20142;-87
2022/08/18 01:07:05;;;;;;;10.18;8.98;;;;;;;;;;5060936;28;20024;-82
2022/08/18 01:09:34;;;;;;;10.45;8.75;;;;;;;;;;5058896;28;20028;-77
2022/08/18 01:11:59;;;;;;;10.50;8.27;;;;;;;;;;5067749;28;20028;-87
2022/08/18 01:14:25;;;;;;;14.73;9.48;;;;;;;;;;5063453;28;20993;-86
2022/08/18 01:22:34;;;;;;;13.85;10.10;;;;;;;;;;5064616;28;20046;-81
2022/08/18 01:27:44;;;;;;;11.45;9.82;;;;;;;;;;5066144;28;20043;-79
2022/08/18 01:30:13;;;;;;;15.90;11.23;;;;;;;;;;5069112;28;20032;-82
2022/08/18 01:32:40;;;;;;;13.20;10.95;;;;;;;;;;5065307;28;20028;-77
2022/08/18 01:35:09;;;;;;;11.73;10.50;;;;;;;;;;5057319;28;20044;-83
2022/08/18 01:37:35;;;;;;;13.10;10.68;;;;;;;;;;5061248;28;20416;-85
2022/08/18 01:40:05;;;;;;;12.77;10.50;;;;;;;;;;5066542;28;20020;-79
2022/08/18 01:42:30;;;;;;;11.85;9.70;;;;;;;;;;5066710;28;20039;-88
2022/08/18 01:44:56;;;;;;;12.05;9.93;;;;;;;;;;5066733;28;20024;-85
2022/08/18 01:47:21;;;;;;;13.18;10.15;;;;;;;;;;5064885;28;20529;-86
2022/08/18 01:49:46;;;;;;;12.85;10.45;;;;;;;;;;5060053;28;20033;-78
2022/08/18 01:52:19;;;;;;;12.38;11.07;;;;;;;;;;5055975;28;20032;-79
2022/08/18 01:54:47;;;;;;;14.30;11.45;;;;;;;;;;5061627;28;20512;-79
2022/08/18 01:57:13;;;;;;;15.07;11.48;;;;;;;;;;5059218;28;20039;-82
2022/08/18 01:59:39;;;;;;;13.30;11.02;;;;;;;;;;5056682;28;20043;-81
2022/08/18 02:02:05;;;;;;;14.45;11.65;;;;;;;;;;5060394;28;20077;-81
2022/08/18 02:04:32;;;;;;;14.48;10.38;;;;;;;;;;5057325;28;20024;-79
2022/08/18 02:07:01;;;;;;;15.93;11.65;;;;;;;;;;5062566;28;20026;-82
2022/08/18 02:09:27;;;;;;;13.43;10.68;;;;;;;;;;5063472;28;20073;-82
2022/08/18 02:11:55;;;;;;;14.32;10.18;;;;;;;;;;5060161;28;20028;-86
2022/08/18 02:14:20;;;;;;;11.55;10.18;;;;;;;;;;5055869;28;20452;-86
2022/08/18 02:16:45;;;;;;;13.27;10.23;;;;;;;;;;5060529;28;20021;-82
2022/08/18 02:19:11;;;;;;;11.60;9.60;;;;;;;;;;5052754;28;20039;-82
2022/08/18 02:21:37;;;;;;;14.07;10.75;;;;;;;;;;5055067;28;20136;-87
2022/08/18 02:24:03;;;;;;;10.98;9.73;;;;;;;;;;5054867;28;20107;-79
2022/08/18 02:26:28;;;;;;;14.73;10.80;;;;;;;;;;5049762;28;20447;-81
2022/08/18 02:28:54;;;;;;;12.95;9.65;;;;;;;;;;5058192;28;20025;-76
2022/08/18 02:31:22;;;;;;;13.13;11.18;;;;;;;;;;5060191;28;20389;-76
2022/08/18 02:33:48;;;;;;;16.05;11.30;;;;;;;;;;5059120;28;20028;-80
2022/08/18 02:36:14;;;;;;;15.73;12.23;;;;;;;;;;5055614;28;20072;-87
2022/08/18 02:38:40;;;;;;;12.80;10.90;;;;;;;;;;5059200;28;20033;-83
2022/08/18 02:41:09;;;;;;;19.58;13.35;;;;;;;;;;5062093;28;20040;-82
2022/08/18 02:43:36;;;;;;;21.20;13.98;;;;;;;;;;5057047;28;20032;-80
2022/08/18 02:46:02;;;;;;;16.33;14.10;;;;;;;;;;5065451;28;20024;-85
2022/08/18 02:48:34;;;;;;;21.00;14.25;;;;;;;;;;5074403;28;20024;-83
2022/08/18 02:51:12;;;;;;;19.02;14.13;;;;;;;;;;5060581;28;20116;-81
2022/08/18 02:53:40;;;;;;;17.48;14.85;;;;;;;;;;5052503;28;20392;-80
2022/08/18 02:56:24;;;;;;;18.35;14.85;;;;;;;;;;5058467;28;20609;-88
2022/08/18 02:58:52;;;;;;;21.00;14.07;;;;;;;;;;5056936;28;20119;-82
2022/08/18 03:01:24;;;;;;;15.82;11.90;;;;;;;;;;5062502;28;20089;-80
2022/08/18 03:03:49;;;;;;;17.92;13.40;;;;;;;;;;5061266;28;20024;-82
2022/08/18 03:06:16;;;;;;;19.58;15.15;;;;;;;;;;5063112;28;20025;-76
2022/08/18 03:08:42;;;;;;;18.85;14.18;;;;;;;;;;5054013;28;20048;-77
2022/08/18 03:11:07;;;;;;;16.48;14.02;;;;;;;;;;5069619;28;20066;-83
2022/08/18 03:13:32;;;;;;;15.65;13.95;;;;;;;;;;5059904;28;20033;-79
2022/08/18 03:15:58;;;;;;;12.18;10.88;;;;;;;;;;5064710;28;20035;-87
2022/08/18 03:18:24;;;;;;;14.70;11.82;;;;;;;;;;5060010;28;20025;-77
2022/08/18 03:20:49;;;;;;;14.45;11.70;;;;;;;;;;5063175;28;20939;-78
2022/08/18 03:23:15;;;;;;;16.63;12.48;;;;;;;;;;5064071;28;20029;-79
2022/08/18 03:25:48;;;;;;;13.88;11.10;;;;;;;;;;5070176;28;20434;-77
2022/08/18 03:28:15;;;;;;;14.32;11.90;;;;;;;;;;5066696;28;20025;-82
2022/08/18 03:30:42;;;;;;;16.23;11.80;;;;;;;;;;5067988;28;20609;-77
2022/08/18 03:33:08;;;;;;;14.07;10.90;;;;;;;;;;5068010;28;20030;-77
2022/08/18 03:35:35;;;;;;;15.20;11.65;;;;;;;;;;5066352;28;20733;-86
2022/08/18 03:38:01;;;;;;;13.15;11.35;;;;;;;;;;5066195;28;20598;-79
2022/08/18 03:40:27;;;;;;;13.85;11.20;;;;;;;;;;5067571;28;20109;-87
2022/08/18 03:42:53;;;;;;;17.00;12.52;;;;;;;;;;5068421;28;20154;-79
2022/08/18 03:45:18;;;;;;;17.02;11.70;;;;;;;;;;5066261;28;20047;-79
2022/08/18 03:47:44;;;;;;;14.82;12.75;;;;;;;;;;5068579;28;20391;-78
2022/08/18 03:50:10;;;;;;;14.45;11.40;;;;;;;;;;5061070;28;20036;-82
2022/08/18 03:52:37;;;;;;;12.68;11.35;;;;;;;;;;5061187;28;20033;-87
2022/08/18 03:55:04;;;;;;;15.75;11.55;;;;;;;;;;5058669;28;20028;-77
2022/08/18 03:57:31;;;;;;;15.68;11.63;;;;;;;;;;5064255;28;20032;-79
2022/08/18 03:59:57;;;;;;;15.60;12.05;;;;;;;;;;5061711;28;20016;-83
2022/08/18 04:02:23;;;;;;;15.85;12.02;;;;;;;;;;5062903;28;20043;-88
2022/08/18 04:04:48;;;;;;;14.48;12.13;;;;;;;;;;5064064;28;20024;-83
2022/08/18 04:07:15;;;;;;;13.25;11.70;;;;;;;;;;5057291;28;20033;-76
2022/08/18 04:09:41;;;;;;;15.50;12.13;;;;;;;;;;5064845;28;20032;-78
2022/08/18 04:12:13;;;;;;;14.93;12.10;;;;;;;;;;5064920;28;20523;-79
2022/08/18 04:14:40;;;;;;;15.17;12.77;;;;;;;;;;5065672;28;20039;-83
2022/08/18 04:17:07;;;;;;;14.50;12.45;;;;;;;;;;5065749;28;20281;-79
2022/08/18 04:19:33;;;;;;;17.73;12.77;;;;;;;;;;5061420;28;20024;-83
2022/08/18 04:22:01;;;;;;;16.98;14.38;;;;;;;;;;5061378;28;20388;-77
2022/08/18 04:24:29;;;;;;;18.45;14.93;;;;;;;;;;5061903;28;20024;-82
2022/08/18 04:26:55;;;;;;;17.35;14.38;;;;;;;;;;5065323;28;20411;-82
2022/08/18 04:29:21;;;;;;;16.42;14.68;;;;;;;;;;5063600;28;20027;-79
2022/08/18 04:31:47;;;;;;;16.60;13.70;;;;;;;;;;5069203;28;20032;-79
2022/08/18 04:34:13;;;;;;;17.15;14.40;;;;;;;;;;5061697;28;20036;-81
2022/08/18 04:36:40;;;;;;;15.90;13.85;;;;;;;;;;5065010;28;20160;-77
2022/08/18 04:39:07;;;;;;;16.92;13.15;;;;;;;;;;5077555;28;20040;-88
2022/08/18 04:41:34;;;;;;;16.42;12.45;;;;;;;;;;5066010;28;20028;-86
2022/08/18 04:44:02;;;;;;;13.20;10.93;;;;;;;;;;5065093;28;20020;-77
2022/08/18 04:46:29;;;;;;;13.88;11.05;;;;;;;;;;5064578;28;20035;-87
2022/08/18 04:49:00;;;;;;;14.45;11.40;;;;;;;;;;5059368;28;20064;-79
2022/08/18 04:51:28;;;;;;;11.95;10.25;;;;;;;;;;5064973;28;20032;-81
2022/08/18 04:53:55;;;;;;;12.93;11.52;;;;;;;;;;5069093;28;20024;-79
2022/08/18 04:56:28;;;;;;;13.18;11.57;;;;;;;;;;5052416;28;20024;-77
2022/08/18 04:58:58;;;;;;;12.43;11.00;;;;;;;;;;5056048;28;20021;-79
2022/08/18 05:01:28;;;;;;;13.07;11.32;;;;;;;;;;5063832;28;20025;-77
2022/08/18 05:03:56;;;;;;;14.45;10.43;;;;;;;;;;5060989;28;20065;-81
2022/08/18 05:06:24;;;;;;;12.93;11.15;;;;;;;;;;5059400;28;20066;-80
2022/08/18 05:08:55;;;;;;;13.18;10.65;;;;;;;;;;5054128;28;20501;-79
2022/08/18 05:11:23;;;;;;;11.82;9.82;;;;;;;;;;5055997;28;20016;-79
2022/08/18 05:13:51;;;;;;;17.85;11.02;;;;;;;;;;5053914;28;20032;-81
2022/08/18 05:16:17;;;;;;;12.90;11.23;;;;;;;;;;5051539;28;20040;-81
2022/08/18 05:18:43;;;;;;;14.50;10.93;;;;;;;;;;5053923;28;20028;-79
2022/08/18 05:21:14;;;;;;;12.55;11.23;;;;;;;;;;5049140;28;20051;-82
2022/08/18 05:23:44;;;;;;;13.13;11.32;;;;;;;;;;5049387;28;20032;-77
2022/08/18 05:26:12;;;;;;;12.10;10.65;;;;;;;;;;5055290;28;20095;-79
2022/08/18 05:28:37;;;;;;;15.77;11.90;;;;;;;;;;5052727;28;20043;-80
2022/08/18 05:31:11;;;;;;;14.43;11.63;;;;;;;;;;5054695;28;20040;-87
2022/08/18 05:33:41;;;;;;;16.42;12.57;;;;;;;;;;5053482;28;20032;-79
2022/08/18 05:36:32;;;;;;;14.30;11.52;;;;;;;;;;5054065;28;21545;-82
2022/08/18 05:39:03;;;;;;;13.00;11.35;;;;;;;;;;5055221;28;20036;-81
2022/08/18 05:41:33;;;;;;;15.57;12.82;;;;;;;;;;5051827;28;20044;-82
2022/08/18 05:44:00;;;;;;;17.00;12.80;;;;;;;;;;5056366;28;20370;-83
2022/08/18 05:46:41;;;;;;;15.18;11.80;;;;;;;;;;5053526;28;20028;-88
2022/08/18 05:49:07;;;;;;;15.38;11.52;;;;;;;;;;5056804;28;20032;-81
2022/08/18 05:51:44;;;;;;;14.43;12.63;;;;;;;;;;5047389;28;20029;-79
2022/08/18 05:57:02;;;;;;;13.82;10.52;;;;;;;;;;5055090;28;20059;-79
2022/08/18 05:59:32;;;;;;;;;;;;;;;;;;5055164;28;20030;-83
2022/08/18 06:02:16;;;;;;;12.20;9.10;;;;;;;;;;5065380;28;20011;-82
2022/08/18 06:04:50;;;;;;;13.57;10.15;;;;;;;;;;5051131;28;20051;-80
2022/08/18 06:07:21;;;;;;;11.02;9.07;;;;;;;;;;5059189;28;20027;-76
2022/08/18 06:09:52;;;;;;;14.13;11.80;;;;;;;;;;5058570;28;20808;-86
2022/08/18 06:12:32;;;;;;;18.13;12.50;;;;;;;;;;5058486;28;20095;-82
2022/08/18 06:15:36;;;;;;;17.35;11.98;;;;;;;;;;5062478;28;20526;-88
2022/08/18 06:18:24;;;;;;;11.55;9.15;;;;;;;;;;5054287;28;20036;-78
2022/08/18 06:21:09;;;;;;;15.18;12.02;;;;;;;;;;5063510;28;20059;-80
2022/08/18 06:23:53;;;;;;;14.82;10.63;;;;;;;;;;5059495;28;20029;-76
2022/08/18 06:26:33;;;;;;;18.38;12.80;;;;;;;;;;5066325;28;20435;-83
2022/08/18 06:29:17;;;;;;;18.63;12.68;;;;;;;;;;5067981;28;20062;-79
2022/08/18 06:31:54;;;;;;;12.00;10.23;;;;;;;;;;5065957;28;20024;-87
2022/08/18 06:34:42;;;;;;;15.85;12.07;;;;;;;;;;5062469;28;20048;-77
2022/08/18 06:37:14;;;;;;;13.77;12.27;;;;;;;;;;5062969;28;20480;-78
2022/08/18 06:39:44;;;;;;;16.17;12.63;;;;;;;;;;5077970;28;20074;-88
2022/08/18 06:42:10;;;;;;;12.95;9.80;;;;;;;;;;5064254;28;20032;-86
2022/08/18 06:44:41;;;;;;;13.07;10.90;;;;;;;;;;5055463;28;20479;-78
2022/08/18 06:47:16;;;;;;;13.70;12.02;;;;;;;;;;5059014;28;20032;-82
2022/08/18 06:49:58;;;;;;;17.33;11.50;;;;;;;;;;5057590;28;20055;-77
2022/08/18 06:52:32;;;;;;;16.35;11.85;;;;;;;;;;5056381;28;20042;-81
2022/08/18 06:55:05;;;;;;;15.32;11.32;;;;;;;;;;5059326;28;20025;-76
2022/08/18 06:57:33;;;;;;;;;;;;;;;;;;5070489;28;20078;-82
2022/08/18 07:00:23;;;;;;;14.65;10.60;;;;;;;;;;5064826;28;19956;-79
2022/08/18 07:03:08;;;;;;;13.65;10.35;;;;;;;;;;5057168;28;20047;-78
2022/08/18 07:05:35;;;;;;;14.43;10.15;;;;;;;;;;5068952;28;20028;-86
2022/08/18 07:08:13;;;;;;;15.13;10.00;;;;;;;;;;5070354;28;20055;-78
2022/08/18 07:10:44;;;;;;;12.30;9.68;;;;;;;;;;5064932;28;20025;-77
2022/08/18 07:13:17;;;;;;;13.93;11.15;;;;;;;;;;5072937;28;20032;-88
2022/08/18 07:15:44;;;;;;;12.80;10.13;;;;;;;;;;5064968;28;20033;-87
2022/08/18 07:18:11;;;;;;;11.68;9.82;;;;;;;;;;5074612;28;20503;-82
2022/08/18 07:21:00;;;;;;;11.43;7.40;;;;;;;;;;5066802;28;20032;-78
2022/08/18 07:23:38;;;;;;;8.88;7.45;;;;;;;;;;5073227;28;20488;-87
2022/08/18 07:26:08;;;;;;;8.75;7.15;;;;;;;;;;5075312;28;20043;-81
2022/08/18 07:28:38;;;;;;;10.77;7.70;;;;;;;;;;5071780;28;20031;-78
2022/08/18 07:31:23;;;;;;;8.52;7.22;;;;;;;;;;5073409;28;20123;-77
2022/08/18 07:34:11;;;;;;;9.80;7.25;;;;;;;;;;5065236;28;20081;-87
2022/08/18 07:37:14;;;;;;;10.90;7.43;;;;;;;;;;5074417;28;20034;-82
2022/08/18 07:39:48;;;;;;;10.05;7.28;;;;;;;;;;5065376;28;20040;-82
2022/08/18 07:42:28;;;;;;;11.93;7.43;;;;;;;;;;5054492;28;20483;-81
2022/08/18 07:45:02;;;;;;;11.20;8.15;;;;;;;;;;5060493;28;20027;-81
2022/08/18 07:47:36;;;;;;;12.18;8.15;;;;;;;;;;5064864;28;20028;-79
2022/08/18 07:50:03;;;;;;;10.45;8.20;;;;;;;;;;5070093;28;20036;-81
2022/08/18 07:52:35;;;;;;;11.38;7.50;;;;;;;;;;5068241;28;20024;-78
2022/08/18 07:55:06;;;;;;;11.77;8.18;;;;;;;;;;5066241;28;20078;-80
2022/08/18 07:57:42;;;;;;;10.13;7.63;;;;;;;;;;5069817;28;20035;-78
2022/08/18 08:00:50;;;;;;;9.55;7.55;;;;;;;;;;5067992;28;20082;-79
2022/08/18 08:03:27;;;;;;;9.75;7.72;;;;;;;;;;5009996;28;20108;-79
2022/08/18 08:06:11;;;;;;;10.52;7.93;;;;;;;;;;5065858;28;20071;-80
2022/08/18 08:08:43;;;;;;;13.00;7.50;;;;;;;;;;5065445;28;20163;-79
2022/08/18 08:11:22;;;;;;;12.03;7.73;;;;;;;;;;5055358;28;20428;-80
2022/08/18 08:14:15;;;;;;;8.52;7.45;;;;;;;;;;5070190;28;20430;-81
2022/08/18 08:16:59;;;;;;;;;;;;;;;;;;5068169;28;20551;-80
2022/08/18 08:19:45;;;;;;;8.95;6.78;;;;;;;;;;5063028;28;19923;-82
2022/08/18 08:22:23;;;;;;;9.27;6.03;;;;;;;;;;5058469;28;20477;-81
2022/08/18 08:25:09;;;;;;;8.10;6.07;;;;;;;;;;5067001;28;20048;-80
2022/08/18 08:27:49;;;;;;;7.63;5.93;;;;;;;;;;5064245;28;20090;-79
2022/08/18 08:30:18;;;;;;;7.25;6.05;;;;;;;;;;5065393;28;20024;-80
2022/08/18 08:32:58;;;;;;;8.73;5.80;;;;;;;;;;5059946;28;20401;-81
2022/08/18 08:35:51;;;;;;;7.88;5.65;;;;;;;;;;5056676;28;20881;-79
2022/08/18 08:38:20;;;;;;;6.28;5.05;;;;;;;;;;5058470;28;20082;-79
2022/08/18 08:40:53;;;;;;;7.57;4.75;;;;;;;;;;5080969;28;20119;-79
2022/08/18 08:43:41;;;;;;;7.00;4.75;;;;;;;;;;5068916;28;20033;-80
2022/08/18 08:46:22;;;;;;;7.55;4.50;;;;;;;;;;5059196;28;20027;-80
2022/08/18 08:48:55;;;;;;;7.07;5.07;;;;;;;;;;5064640;28;20124;-78
2022/08/18 08:51:38;;;;;;;6.13;4.97;;;;;;;;;;5063154;28;20032;-81
2022/08/18 08:54:23;;;;;;;;;;;;;;;;;;5082548;28;20070;-79
2022/08/18 08:56:52;;;;;;;5.75;3.92;;;;;;;;;;5060789;28;20262;-81
2022/08/18 08:59:23;;;;;;;7.38;4.82;;;;;;;;;;5063474;28;20690;-81
2022/08/18 09:02:09;;;;;;;7.65;4.65;;;;;;;;;;5061804;28;20032;-81
2022/08/18 09:04:42;;;;;;;5.35;4.20;;;;;;;;;;5057274;28;20031;-81
2022/08/18 09:07:10;;;;;;;;;;;;;;;;;;5050557;28;20072;-81
2022/08/18 09:09:57;;;;;;;5.50;3.78;;;;;;;;;;5065727;28;19916;-81
2022/08/18 09:12:38;;;;;;;5.70;4.45;;;;;;;;;;5056317;28;20121;-80
2022/08/18 09:15:32;;;;;;;5.57;4.20;;;;;;;;;;5062353;28;20032;-79
2022/08/18 09:18:10;;;;;;;6.13;4.40;;;;;;;;;;5063851;28;20028;-79
2022/08/18 09:21:03;;;;;;;8.35;5.07;;;;;;;;;;5072135;28;20487;-78
2022/08/18 09:23:38;;;;;;;7.68;5.43;;;;;;;;;;5074096;28;20016;-78
2022/08/18 09:26:38;;;;;;;7.93;5.60;;;;;;;;;;5076055;28;20040;-81
2022/08/18 09:29:35;;;;;;;8.75;5.72;;;;;;;;;;5061533;28;20155;-80
2022/08/18 09:32:19;;;;;;;7.90;5.40;;;;;;;;;;5056310;28;20044;-81
2022/08/18 09:35:08;;;;;;;6.18;4.85;;;;;;;;;;5068385;28;20044;-81
2022/08/18 09:37:46;;;;;;;6.28;5.40;;;;;;;;;;5064396;28;20072;-78
2022/08/18 09:43:38;;;;;;;6.18;5.40;;;;;;;;;;5067476;28;20079;-85
2022/08/18 09:46:06;;;;;;;7.10;4.85;;;;;;;;;;5070717;28;20024;-79
2022/08/18 09:48:39;;;;;;;6.18;5.18;;;;;;;;;;5064798;28;20550;-80
2022/08/18 09:51:33;;;;;;;7.28;5.22;;;;;;;;;;5052389;28;20032;-79
2022/08/18 09:54:08;;;;;;;6.60;5.07;;;;;;;;;;5070680;28;21116;-83
2022/08/18 09:56:49;;;;;;;6.30;5.18;;;;;;;;;;5068827;28;20032;-79
2022/08/18 09:59:33;;;;;;;8.45;6.50;;;;;;;;;;5067851;28;20827;-83
2022/08/18 10:02:00;;;;;;;8.95;6.18;;;;;;;;;;5063723;28;20017;-79
2022/08/18 10:04:31;;;;;;;8.15;6.50;;;;;;;;;;5071371;28;20035;-80
2022/08/18 10:07:38;;;;;;;7.28;5.53;;;;;;;;;;5065144;28;20073;-86
2022/08/18 10:10:17;;;;;;;7.03;4.95;;;;;;;;;;5059732;28;21176;-78
2022/08/18 10:13:08;;;;;;;7.32;5.53;;;;;;;;;;5061765;28;20203;-80
2022/08/18 10:15:39;;;;;;;5.93;5.18;;;;;;;;;;5058827;28;20165;-84
2022/08/18 10:18:32;;;;;;;11.75;5.18;;;;;;;;;;5069629;28;20564;-81
2022/08/18 10:21:07;;;;;;;6.70;5.53;;;;;;;;;;5059704;28;20028;-81
2022/08/18 10:23:52;;;;;;;7.18;5.30;;;;;;;;;;5077929;28;20253;-82
2022/08/18 10:26:29;;;;;;;5.95;4.90;;;;;;;;;;5060590;28;20032;-78
2022/08/18 10:29:03;;;;;;;7.22;4.78;;;;;;;;;;5068361;28;20035;-85
2022/08/18 10:31:31;;;;;;;6.43;4.78;;;;;;;;;;5063029;28;20027;-80
2022/08/18 10:34:01;;;;;;;9.07;4.38;;;;;;;;;;5062724;28;20056;-80
2022/08/18 10:36:50;;;;;;;8.38;5.28;;;;;;;;;;5058549;28;20195;-83
2022/08/18 10:39:21;;;;;;;8.57;5.90;;;;;;;;;;5067580;28;20043;-83
2022/08/18 10:42:10;;;;;;;7.45;5.88;;;;;;;;;;5059555;28;20017;-80
2022/08/18 10:44:42;;;;;;;6.60;5.75;;;;;;;;;;5064913;28;20045;-83
2022/08/18 10:47:19;;;;;;;6.37;4.57;;;;;;;;;;5069643;28;20028;-79
2022/08/18 10:49:49;;;;;;;6.32;4.50;;;;;;;;;;5070240;28;20327;-82
2022/08/18 10:52:50;;;;;;;5.68;4.20;;;;;;;;;;5065311;28;20097;-82
2022/08/18 10:55:25;;;;;;;5.70;4.50;;;;;;;;;;5053411;28;20428;-79
2022/08/18 10:58:19;;;;;;;6.65;5.68;;;;;;;;;;5057956;28;20028;-86
2022/08/18 11:01:05;;;;;;;9.30;6.00;;;;;;;;;;5060547;28;20024;-81
2022/08/18 11:04:08;;;;;;;6.55;5.53;;;;;;;;;;5078561;28;20021;-81
2022/08/18 11:06:46;;;;;;;7.72;6.45;;;;;;;;;;5071245;28;20067;-83
2022/08/18 11:09:12;;;;;;;6.50;5.80;;;;;;;;;;5069365;28;20029;-81
2022/08/18 11:11:42;;;;;;;7.25;6.25;;;;;;;;;;5066614;28;20499;-80
2022/08/18 11:14:24;;;;;;;7.00;5.90;;;;;;;;;;5067638;28;20021;-79
2022/08/18 11:17:04;;;;;;;7.78;5.95;;;;;;;;;;5057685;28;20518;-83
2022/08/18 11:19:36;;;;;;;6.40;5.60;;;;;;;;;;5069613;28;20500;-77
2022/08/18 11:22:02;;;;;;;8.10;5.90;;;;;;;;;;5060766;28;20594;-79
2022/08/18 11:24:31;;;;;;;6.25;4.88;;;;;;;;;;5062374;28;20115;-78
2022/08/18 11:27:17;;;;;;;6.53;5.82;;;;;;;;;;5071173;28;20485;-78
2022/08/18 11:29:43;;;;;;;6.65;4.55;;;;;;;;;;5065541;28;20028;-80
2022/08/18 11:32:28;;;;;;;6.03;5.38;;;;;;;;;;5065064;28;20071;-78
2022/08/18 11:34:56;;;;;;;5.43;4.13;;;;;;;;;;5062550;28;20052;-78
2022/08/18 11:37:27;;;;;;;7.85;6.35;;;;;;;;;;5052731;28;20025;-80
2022/08/18 11:39:56;;;;;;;7.18;5.88;;;;;;;;;;5054897;28;20025;-77
2022/08/18 11:42:37;;;;;;;5.70;5.10;;;;;;;;;;5068975;28;20021;-81
2022/08/18 11:45:15;;;;;;;6.82;4.15;;;;;;;;;;5057674;28;20036;-77
2022/08/18 11:48:13;;;;;;;5.30;4.20;;;;;;;;;;5075978;28;20038;-79
2022/08/18 11:51:02;;;;;;;7.65;5.93;;;;;;;;;;5071935;28;20483;-78
2022/08/18 11:53:31;;;;;;;7.43;5.78;;;;;;;;;;5064277;28;20143;-78
2022/08/18 11:56:18;;;;;;;7.95;6.93;;;;;;;;;;5064155;28;20059;-79
2022/08/18 11:58:52;;;;;;;7.00;6.30;;;;;;;;;;5072315;28;20051;-79
2022/08/18 12:01:53;;;;;;;6.63;5.93;;;;;;;;;;5074437;28;20024;-76
2022/08/18 12:04:19;;;;;;;7.60;6.53;;;;;;;;;;5070287;28;20404;-78
2022/08/18 12:07:04;;;;;;;7.80;7.00;;;;;;;;;;5060306;28;20063;-78
2022/08/18 12:09:30;;;;;;;7.38;6.47;;;;;;;;;;5068782;28;20118;-78
2022/08/18 12:11:58;;;;;;;6.28;5.63;;;;;;;;;;5072066;28;20445;-81
2022/08/18 12:14:28;;;;;;;8.82;6.63;;;;;;;;;;5068974;28;20059;-81
2022/08/18 12:16:54;;;;;;;8.32;6.85;;;;;;;;;;5065304;28;20035;-81
2022/08/18 12:19:20;;;;;;;9.23;8.25;;;;;;;;;;5067005;28;20025;-80
2022/08/18 12:21:52;;;;;;;10.30;9.27;;;;;;;;;;5062330;28;20024;-78
2022/08/18 12:24:22;;;;;;;10.00;8.93;;;;;;;;;;5063666;28;20125;-79
2022/08/18 12:26:48;;;;;;;10.25;9.18;;;;;;;;;;5063185;28;20067;-77
2022/08/18 12:29:17;;;;;;;10.48;8.80;;;;;;;;;;5065172;28;20757;-79
2022/08/18 12:31:49;;;;;;;10.32;9.15;;;;;;;;;;5064818;28;20131;-80
2022/08/18 12:34:23;;;;;;;10.30;9.30;;;;;;;;;;5069833;28;20561;-78
2022/08/18 12:36:54;;;;;;;12.25;10.15;;;;;;;;;;5065378;28;20408;-79
2022/08/18 12:39:19;;;;;;;10.80;9.70;;;;;;;;;;5066677;28;21966;-77
2022/08/18 12:41:45;;;;;;;10.77;9.68;;;;;;;;;;5062756;28;20029;-78
2022/08/18 12:44:10;;;;;;;12.40;9.07;;;;;;;;;;5058241;28;20110;-79
2022/08/18 12:46:36;;;;;;;8.35;6.38;;;;;;;;;;5060064;28;20029;-80
2022/08/18 12:49:09;;;;;;;8.25;6.13;;;;;;;;;;5070765;28;20033;-77
2022/08/18 12:51:34;;;;;;;7.28;6.50;;;;;;;;;;5068817;28;20090;-80
2022/08/18 12:54:00;;;;;;;7.30;5.75;;;;;;;;;;5062643;28;20032;-79
2022/08/18 12:56:29;;;;;;;7.45;6.35;;;;;;;;;;5068122;28;20028;-78
2022/08/18 12:58:55;;;;;;;7.22;6.00;;;;;;;;;;5076275;28;20024;-78
2022/08/18 13:01:21;;;;;;;7.28;6.20;;;;;;;;;;5067668;28;20089;-79
2022/08/18 13:03:47;;;;;;;8.70;6.93;;;;;;;;;;5069592;28;20100;-83
2022/08/18 13:06:13;;;;;;;8.02;6.70;;;;;;;;;;5070173;28;20067;-83
2022/08/18 13:08:39;;;;;;;8.85;7.40;;;;;;;;;;5057928;28;20457;-78
2022/08/18 13:11:09;;;;;;;8.07;7.28;;;;;;;;;;5066685;28;20099;-80
2022/08/18 13:13:36;;;;;;;7.38;6.57;;;;;;;;;;5062808;28;20033;-80
2022/08/18 13:16:02;;;;;;;9.25;8.35;;;;;;;;;;5087197;28;20027;-83
2022/08/18 13:18:27;;;;;;;7.70;6.90;;;;;;;;;;5066571;28;21041;-77
2022/08/18 13:20:53;;;;;;;7.85;7.15;;;;;;;;;;5072380;28;20073;-77
2022/08/18 13:23:18;;;;;;;7.63;6.25;;;;;;;;;;5063184;28;20020;-78
2022/08/18 13:25:44;;;;;;;8.30;6.40;;;;;;;;;;5069869;28;20038;-77
2022/08/18 13:28:09;;;;;;;6.55;5.65;;;;;;;;;;5071804;28;20020;-78
2022/08/18 13:30:34;;;;;;;7.75;6.82;;;;;;;;;;5065941;28;20446;-76
2022/08/18 13:33:00;;;;;;;7.72;6.70;;;;;;;;;;5060639;28;20536;-77
2022/08/18 13:35:26;;;;;;;7.65;5.80;;;;;;;;;;5059594;28;20047;-76
2022/08/18 13:37:55;;;;;;;7.50;6.70;;;;;;;;;;5064678;28;20032;-77
2022/08/18 13:40:21;;;;;;;7.28;6.07;;;;;;;;;;5055379;28;20031;-80
2022/08/18 13:42:47;;;;;;;7.60;6.80;;;;;;;;;;5056792;28;20070;-79
2022/08/18 13:45:21;;;;;;;7.47;6.78;;;;;;;;;;5064324;28;20036;-77
2022/08/18 13:47:47;;;;;;;7.18;5.25;;;;;;;;;;5067038;28;20031;-80
2022/08/18 13:50:15;;;;;;;6.65;6.03;;;;;;;;;;5066816;28;20107;-81
2022/08/18 13:52:41;;;;;;;6.82;6.10;;;;;;;;;;5065252;28;20031;-82
2022/08/18 13:55:14;;;;;;;8.93;6.55;;;;;;;;;;5055471;28;20072;-77
2022/08/18 13:57:46;;;;;;;7.70;6.00;;;;;;;;;;5058873;28;20037;-78
2022/08/18 14:00:14;;;;;;;6.22;5.47;;;;;;;;;;5057003;28;20031;-78
2022/08/18 14:02:39;;;;;;;6.80;5.30;;;;;;;;;;5065511;28;20050;-77
2022/08/18 14:05:06;;;;;;;8.70;6.82;;;;;;;;;;5064302;28;20028;-82
2022/08/18 14:07:31;;;;;;;9.30;7.25;;;;;;;;;;5063997;28;20123;-78
2022/08/18 14:09:57;;;;;;;8.70;7.70;;;;;;;;;;5052944;28;20029;-79
2022/08/18 14:12:23;;;;;;;7.60;6.80;;;;;;;;;;5065068;28;20347;-77
2022/08/18 14:14:50;;;;;;;6.97;6.28;;;;;;;;;;5055735;28;20033;-81
2022/08/18 14:17:16;;;;;;;6.97;6.28;;;;;;;;;;5063705;28;20032;-77
2022/08/18 14:27:53;;;;;;;8.15;6.53;;;;;;;;;;5069848;28;20130;-77
2022/08/18 14:30:19;;;;;;;7.13;6.43;;;;;;;;;;5069743;28;20024;-76
2022/08/18 14:32:45;;;;;;;6.30;5.60;;;;;;;;;;5069030;28;20032;-82
2022/08/18 14:35:14;;;;;;;7.45;6.75;;;;;;;;;;5064166;28;20481;-79
2022/08/18 14:37:39;;;;;;;8.68;6.85;;;;;;;;;;5063489;28;20028;-77
2022/08/18 14:40:07;;;;;;;8.82;7.25;;;;;;;;;;5050431;28;20035;-81
2022/08/18 14:42:33;;;;;;;9.38;7.40;;;;;;;;;;5068014;28;20481;-79
2022/08/18 14:44:59;;;;;;;8.90;7.72;;;;;;;;;;5061631;28;20032;-78
2022/08/18 14:47:26;;;;;;;10.40;7.30;;;;;;;;;;5060822;28;20036;-77
2022/08/18 14:49:56;;;;;;;8.85;7.75;;;;;;;;;;5068308;28;20056;-78
2022/08/18 14:52:22;;;;;;;9.68;6.80;;;;;;;;;;5065608;28;20129;-79
2022/08/18 14:54:48;;;;;;;8.43;7.20;;;;;;;;;;5065068;28;20032;-77
2022/08/18 14:57:14;;;;;;;9.07;7.20;;;;;;;;;;5058268;28;20119;-81
2022/08/18 14:59:39;;;;;;;7.53;6.35;;;;;;;;;;5059216;28;20478;-79
2022/08/18 15:02:08;;;;;;;7.80;7.00;;;;;;;;;;5066959;28;20090;-79
2022/08/18 15:04:34;;;;;;;8.27;7.47;;;;;;;;;;5065877;28;20119;-77
2022/08/18 15:06:59;;;;;;;9.15;6.50;;;;;;;;;;5053479;28;20071;-77
2022/08/18 15:09:25;;;;;;;9.45;8.13;;;;;;;;;;5063504;28;20024;-80
2022/08/18 15:11:51;;;;;;;8.82;7.55;;;;;;;;;;5068581;28;20514;-77
2022/08/18 15:14:17;;;;;;;9.35;6.72;;;;;;;;;;5061543;28;20032;-79
2022/08/18 15:16:43;;;;;;;7.35;6.40;;;;;;;;;;5057967;28;20032;-77
2022/08/18 15:19:08;;;;;;;9.57;7.60;;;;;;;;;;5068243;28;20488;-79
2022/08/18 15:27:03;;;;;;;9.00;8.10;;;;;;;;;;5066776;28;20269;-78
2022/08/18 15:29:29;;;;;;;9.85;7.78;;;;;;;;;;5071617;28;20408;-82